createdAt,value
2022-10-02T00:01:50.031Z,12.35
2022-10-02T00:04:23.661Z,7.82
2022-10-02T00:06:53.167Z,6.22
2022-10-02T00:09:32.575Z,11.88
2022-10-02T00:12:00.350Z,7.68
2022-10-02T00:14:33.604Z,12.05
2022-10-02T00:17:01.396Z,12.63
2022-10-02T00:19:28.023Z,10.30
2022-10-02T00:22:00.541Z,10.25
2022-10-02T00:25:16.577Z,8.02
2022-10-02T00:27:50.827Z,11.68
2022-10-02T00:30:18.545Z,7.43
2022-10-02T00:33:07.170Z,12.32
2022-10-02T00:35:55.907Z,13.30
2022-10-02T00:38:41.396Z,11.80
2022-10-02T00:43:40.171Z,9.70
2022-10-02T00:46:20.065Z,17.90
2022-10-02T00:49:11.193Z,14.77
2022-10-02T00:51:55.850Z,14.35
2022-10-02T00:54:44.736Z,7.50
2022-10-02T00:57:29.414Z,11.88
2022-10-02T01:00:16.221Z,14.40
2022-10-02T01:03:08.172Z,8.27
2022-10-02T01:05:34.732Z,12.77
2022-10-02T01:08:02.466Z,14.27
2022-10-02T01:10:29.624Z,10.50
2022-10-02T01:12:57.756Z,12.48
2022-10-02T01:15:31.240Z,9.68
2022-10-02T01:17:58.399Z,8.70
2022-10-02T01:20:33.470Z,10.98
2022-10-02T01:23:06.026Z,15.48
2022-10-02T01:25:32.641Z,8.25
2022-10-02T01:27:59.303Z,11.75
2022-10-02T01:30:25.936Z,13.13
2022-10-02T01:32:56.374Z,15.00
2022-10-02T01:35:28.127Z,10.68
2022-10-02T01:37:55.842Z,8.27
2022-10-02T01:40:36.569Z,16.13
2022-10-02T01:43:16.990Z,9.75
2022-10-02T01:45:51.251Z,16.95
2022-10-02T01:48:43.796Z,11.63
2022-10-02T01:51:22.048Z,12.55
2022-10-02T01:54:33.239Z,15.50
2022-10-02T01:57:21.065Z,13.00
2022-10-02T02:00:12.466Z,13.48
2022-10-02T02:02:47.118Z,15.05
2022-10-02T02:05:32.771Z,18.02
2022-10-02T02:11:00.325Z,14.07
2022-10-02T02:13:41.222Z,13.95
2022-10-02T02:16:21.778Z,11.32
2022-10-02T02:19:23.858Z,9.80
2022-10-02T02:21:58.603Z,14.23
2022-10-02T02:24:32.878Z,13.23
2022-10-02T02:27:02.045Z,13.30
2022-10-02T02:29:32.889Z,18.13
2022-10-02T02:32:02.641Z,13.57
2022-10-02T02:34:35.212Z,18.38
2022-10-02T02:37:07.139Z,16.55
2022-10-02T02:39:59.251Z,12.13
2022-10-02T02:42:30.200Z,14.40
2022-10-02T02:45:15.366Z,17.13
2022-10-02T02:47:47.636Z,7.88
2022-10-02T02:50:23.251Z,12.68
2022-10-02T02:53:04.216Z,8.02
2022-10-02T02:55:57.507Z,11.50
2022-10-02T02:58:36.298Z,18.83
2022-10-02T03:01:02.946Z,14.75
2022-10-02T03:03:29.607Z,10.93
2022-10-02T03:06:26.401Z,9.25
2022-10-02T03:08:54.848Z,16.48
2022-10-02T03:11:33.982Z,9.70
2022-10-02T03:14:28.031Z,11.52
2022-10-02T03:16:57.449Z,15.57
2022-10-02T03:19:49.800Z,17.67
2022-10-02T03:22:19.228Z,13.40
2022-10-02T03:25:13.684Z,9.23
2022-10-02T03:27:51.174Z,16.77
2022-10-02T03:30:21.890Z,12.15
2022-10-02T03:32:53.419Z,14.88
2022-10-02T03:35:22.473Z,10.98
2022-10-02T03:37:52.745Z,15.90
2022-10-02T03:40:24.281Z,20.40
2022-10-02T03:42:52.585Z,15.18
2022-10-02T03:45:46.204Z,14.23
2022-10-02T03:48:06.136Z,15.52
2022-10-02T03:50:36.359Z,9.57
2022-10-02T03:53:11.153Z,10.52
2022-10-02T03:55:45.098Z,13.73
2022-10-02T03:58:17.526Z,15.05
2022-10-02T04:01:05.685Z,14.70
2022-10-02T04:03:40.448Z,17.17
2022-10-02T04:06:09.519Z,7.32
2022-10-02T04:08:56.561Z,14.55
2022-10-02T04:11:32.359Z,11.40
2022-10-02T04:14:28.473Z,13.55
2022-10-02T04:17:07.412Z,9.90
2022-10-02T04:19:41.829Z,13.82
2022-10-02T04:22:21.666Z,17.15
2022-10-02T04:24:58.618Z,13.45
2022-10-02T04:27:40.336Z,16.13
2022-10-02T04:30:12.701Z,18.27
2022-10-02T04:32:39.306Z,12.55
2022-10-02T04:35:13.397Z,12.40
2022-10-02T04:37:48.629Z,15.70
2022-10-02T04:40:30.043Z,10.55
2022-10-02T04:43:27.149Z,13.70
2022-10-02T04:45:53.642Z,21.90
2022-10-02T04:48:20.180Z,13.05
2022-10-02T04:51:11.046Z,16.70
2022-10-02T04:53:45.700Z,16.17
2022-10-02T04:56:32.857Z,11.85
2022-10-02T04:58:59.268Z,18.42
2022-10-02T05:01:42.524Z,22.02
2022-10-02T05:04:24.756Z,17.00
2022-10-02T05:07:39.430Z,15.18
2022-10-02T05:10:27.706Z,16.20
2022-10-02T05:13:25.111Z,13.40
2022-10-02T05:16:00.889Z,19.90
2022-10-02T05:18:42.550Z,10.20
2022-10-02T05:21:34.489Z,16.95
2022-10-02T05:24:32.709Z,16.08
2022-10-02T05:27:41.871Z,13.38
2022-10-02T05:30:19.186Z,13.35
2022-10-02T05:33:00.933Z,9.63
2022-10-02T05:35:47.571Z,17.08
2022-10-02T05:38:43.341Z,15.30
2022-10-02T05:41:33.875Z,16.60
2022-10-02T05:44:06.478Z,12.52
2022-10-02T05:46:38.706Z,14.30
2022-10-02T05:49:23.903Z,17.92
2022-10-02T05:52:03.817Z,15.40
2022-10-02T05:54:34.904Z,9.07
2022-10-02T05:57:07.412Z,17.33
2022-10-02T05:59:39.435Z,9.90
2022-10-02T06:02:24.403Z,9.10
2022-10-02T06:05:11.569Z,17.23
2022-10-02T06:07:38.414Z,11.48
2022-10-02T06:10:16.442Z,15.32
2022-10-02T06:12:55.601Z,11.80
2022-10-02T06:15:37.423Z,11.02
2022-10-02T06:18:19.919Z,9.13
2022-10-02T06:20:53.997Z,13.68
2022-10-02T06:23:40.875Z,3.22
2022-10-02T06:26:15.584Z,11.20
2022-10-02T06:28:54.130Z,9.23
2022-10-02T06:31:35.951Z,15.50
2022-10-02T06:34:02.557Z,8.48
2022-10-02T06:36:31.796Z,9.57
2022-10-02T06:39:13.506Z,12.68
2022-10-02T06:41:43.993Z,6.13
2022-10-02T06:44:35.509Z,10.98
2022-10-02T06:47:35.137Z,14.20
2022-10-02T06:50:23.980Z,8.55
2022-10-02T06:53:13.781Z,8.73
2022-10-02T06:55:45.906Z,5.40
2022-10-02T06:58:41.962Z,9.32
2022-10-02T07:01:42.699Z,9.90
2022-10-02T07:04:25.981Z,4.95
2022-10-02T07:06:58.304Z,10.52
2022-10-02T07:09:55.900Z,12.60
2022-10-02T07:12:25.069Z,15.07
2022-10-02T07:15:29.560Z,8.63
2022-10-02T07:18:03.816Z,7.63
2022-10-02T07:20:48.682Z,12.03
2022-10-02T07:23:27.266Z,5.65
2022-10-02T07:25:59.599Z,9.45
2022-10-02T07:28:43.630Z,5.93
2022-10-02T07:31:38.835Z,7.97
2022-10-02T07:34:14.596Z,12.82
2022-10-02T07:36:56.701Z,7.95
2022-10-02T07:39:41.931Z,5.75
2022-10-02T07:43:00.408Z,6.55
2022-10-02T07:45:37.525Z,6.75
2022-10-02T07:48:19.340Z,4.05
2022-10-02T07:51:43.686Z,8.30
2022-10-02T07:54:30.343Z,6.75
2022-10-02T07:57:00.723Z,5.05
2022-10-02T07:59:31.379Z,8.40
2022-10-02T08:01:58.799Z,6.90
2022-10-02T08:04:36.138Z,7.00
2022-10-02T08:07:05.334Z,6.72
2022-10-02T08:09:37.863Z,7.25
2022-10-02T08:12:32.321Z,6.75
2022-10-02T08:14:59.845Z,6.10
2022-10-02T08:17:37.858Z,6.47
2022-10-02T08:20:15.011Z,7.10
2022-10-02T08:22:48.015Z,8.27
2022-10-02T08:25:22.388Z,9.85
2022-10-02T08:28:05.562Z,7.80
2022-10-02T08:30:32.146Z,4.40
2022-10-02T08:32:58.695Z,9.32
2022-10-02T08:35:40.224Z,6.88
2022-10-02T08:38:32.479Z,8.02
2022-10-02T08:41:32.780Z,8.23
2022-10-02T08:44:21.405Z,3.95
2022-10-02T08:47:21.896Z,6.82
2022-10-02T08:50:19.958Z,6.03
2022-10-02T08:53:23.627Z,6.35
2022-10-02T08:56:20.299Z,4.72
2022-10-02T08:58:49.916Z,2.97
2022-10-02T09:01:45.371Z,7.85
2022-10-02T09:04:38.127Z,5.40
2022-10-02T09:07:49.986Z,3.05
2022-10-02T09:11:03.982Z,8.07
2022-10-02T09:13:49.882Z,8.02
2022-10-02T09:16:24.992Z,4.72
2022-10-02T09:21:50.982Z,2.50
2022-10-02T09:24:31.112Z,3.17
2022-10-02T09:27:28.982Z,3.92
2022-10-02T09:30:19.466Z,3.42
2022-10-02T09:32:54.900Z,2.38
2022-10-02T09:36:12.809Z,4.72
2022-10-02T09:39:16.699Z,4.95
2022-10-02T09:41:52.411Z,5.68
2022-10-02T09:44:22.458Z,5.57
2022-10-02T09:47:19.048Z,2.45
2022-10-02T09:50:00.782Z,3.42
2022-10-02T09:52:40.613Z,3.58
2022-10-02T09:55:38.393Z,2.00
2022-10-02T09:58:17.077Z,4.82
2022-10-02T10:00:51.283Z,5.43
2022-10-02T10:03:47.880Z,5.93
2022-10-02T10:06:29.213Z,5.13
2022-10-02T10:09:23.730Z,3.67
2022-10-02T10:12:02.780Z,4.43
2022-10-02T10:14:42.833Z,5.30
2022-10-02T10:17:21.387Z,3.25
2022-10-02T10:20:22.172Z,2.67
2022-10-02T10:23:10.716Z,4.53
2022-10-02T10:26:00.060Z,2.15
2022-10-02T10:28:37.922Z,3.50
2022-10-02T10:31:31.603Z,3.90
2022-10-02T10:34:29.226Z,6.88
2022-10-02T10:37:39.430Z,3.80
2022-10-02T10:40:24.144Z,6.63
2022-10-02T10:43:28.435Z,2.50
2022-10-02T10:46:25.236Z,3.75
2022-10-02T10:49:13.101Z,7.15
2022-10-02T10:51:53.466Z,4.63
2022-10-02T10:54:44.746Z,3.83
2022-10-02T10:57:32.853Z,5.85
2022-10-02T11:00:02.807Z,4.93
2022-10-02T11:02:56.406Z,7.82
2022-10-02T11:05:47.437Z,3.03
2022-10-02T11:08:58.429Z,3.20
2022-10-02T11:11:31.485Z,4.45
2022-10-02T11:14:49.099Z,7.18
2022-10-02T11:17:43.109Z,5.03
2022-10-02T11:20:34.563Z,7.72
2022-10-02T11:23:36.434Z,3.00
2022-10-02T11:26:25.133Z,8.77
2022-10-02T11:29:06.843Z,6.53
2022-10-02T11:31:33.272Z,4.90
2022-10-02T11:34:19.764Z,6.68
2022-10-02T12:29:40.958Z,8.85
2022-10-02T12:32:28.098Z,5.25
2022-10-02T12:35:03.660Z,6.28
2022-10-02T12:37:36.374Z,8.32
2022-10-02T12:40:27.312Z,6.90
2022-10-02T12:43:26.979Z,10.15
2022-10-02T12:46:32.417Z,6.53
2022-10-02T12:49:20.247Z,9.07
2022-10-02T12:52:06.055Z,6.60
2022-10-02T12:54:50.913Z,6.43
2022-10-02T12:57:47.053Z,5.72
2022-10-02T13:00:17.154Z,8.90
2022-10-02T13:03:12.741Z,10.43
2022-10-02T13:06:06.876Z,6.65
2022-10-02T13:08:50.343Z,8.10
2022-10-02T13:11:32.846Z,9.65
2022-10-02T13:14:05.315Z,9.73
2022-10-02T13:16:36.777Z,4.72
2022-10-02T13:19:34.149Z,6.38
2022-10-02T13:22:23.784Z,4.30
2022-10-02T13:25:02.605Z,5.28
2022-10-02T13:27:31.901Z,8.50
2022-10-02T13:30:19.687Z,10.18
2022-10-02T13:32:49.964Z,7.80
2022-10-02T13:36:09.077Z,9.95
2022-10-02T13:38:38.524Z,4.93
2022-10-02T13:41:20.309Z,5.35
2022-10-02T13:44:12.177Z,6.15
2022-10-02T13:47:00.085Z,6.63
2022-10-02T13:49:39.795Z,5.28
2022-10-02T13:52:12.307Z,5.53
2022-10-02T13:55:02.430Z,8.30
2022-10-02T13:57:47.180Z,8.50
2022-10-02T14:00:37.519Z,9.73
2022-10-02T14:03:22.029Z,6.93
2022-10-02T14:06:00.566Z,8.13
2022-10-02T14:08:42.516Z,6.70
2022-10-02T14:11:20.216Z,7.85
2022-10-02T14:14:24.481Z,11.48
2022-10-02T14:17:05.767Z,9.68
2022-10-02T14:19:54.364Z,7.60
2022-10-02T14:22:36.022Z,7.22
2022-10-02T14:25:12.531Z,5.53
2022-10-02T14:28:11.116Z,8.82
2022-10-02T14:30:49.749Z,6.00
2022-10-02T14:33:32.587Z,7.82
2022-10-02T14:36:09.254Z,8.73
2022-10-02T14:38:54.060Z,7.43
2022-10-02T14:41:42.700Z,11.70
2022-10-02T14:44:32.391Z,10.90
2022-10-02T14:47:29.036Z,8.45
2022-10-02T14:50:23.696Z,5.32
2022-10-02T14:53:15.240Z,11.77
2022-10-02T14:56:00.189Z,7.35
2022-10-02T14:59:09.741Z,8.27
2022-10-02T15:01:53.912Z,7.95
2022-10-02T15:04:47.728Z,9.85
2022-10-02T15:07:18.168Z,5.75
2022-10-02T15:10:22.206Z,8.18
2022-10-02T15:13:06.922Z,10.68
2022-10-02T15:16:15.976Z,9.77
2022-10-02T15:19:37.139Z,7.28
2022-10-02T15:22:31.616Z,11.25
2022-10-02T15:25:06.566Z,7.57
2022-10-02T15:28:31.817Z,7.13
2022-10-02T15:31:07.245Z,5.75
2022-10-02T15:33:40.476Z,7.82
2022-10-02T15:36:36.558Z,8.10
2022-10-02T15:39:13.743Z,7.75
2022-10-02T15:42:07.175Z,10.70
2022-10-02T15:44:42.532Z,9.98
2022-10-02T15:47:24.601Z,9.85
2022-10-02T15:50:33.443Z,6.93
2022-10-02T15:53:34.652Z,7.07
2022-10-02T15:56:29.212Z,7.70
2022-10-02T15:59:35.229Z,13.57
2022-10-02T16:02:32.457Z,6.85
2022-10-02T16:05:15.159Z,7.68
2022-10-02T16:07:44.785Z,8.20
2022-10-02T16:10:20.298Z,6.10
2022-10-02T16:13:08.652Z,9.88
2022-10-02T16:16:00.747Z,11.23
2022-10-02T16:18:54.514Z,8.52
2022-10-02T16:21:30.896Z,4.72
2022-10-02T16:24:24.744Z,12.88
2022-10-02T16:27:15.667Z,6.72
2022-10-02T16:29:54.512Z,8.82
2022-10-02T16:32:39.316Z,8.15
2022-10-02T16:36:01.106Z,8.40
2022-10-02T16:38:41.874Z,10.98
2022-10-02T16:41:32.773Z,8.02
2022-10-02T16:44:23.151Z,7.80
2022-10-02T16:46:58.808Z,7.15
2022-10-02T16:49:43.339Z,5.85
2022-10-02T16:52:34.654Z,7.38
2022-10-02T16:55:15.012Z,5.90
2022-10-02T16:57:49.338Z,8.60
2022-10-02T17:00:22.518Z,7.13
2022-10-02T17:02:55.972Z,6.38
2022-10-02T17:05:44.384Z,7.18
2022-10-02T17:08:22.949Z,9.40
2022-10-02T17:11:21.452Z,6.57
2022-10-02T17:14:02.909Z,7.70
2022-10-02T17:16:40.235Z,13.32
2022-10-02T17:19:31.805Z,7.45
2022-10-02T17:22:03.829Z,6.63
2022-10-02T17:24:41.532Z,7.85
2022-10-02T17:27:18.079Z,17.15
2022-10-02T17:30:04.907Z,17.35
2022-10-02T17:32:37.674Z,11.63
2022-10-02T17:35:16.432Z,12.60
2022-10-02T17:38:20.278Z,6.93
2022-10-02T17:40:54.169Z,6.25
2022-10-02T17:43:50.597Z,8.63
2022-10-02T17:46:19.983Z,6.70
2022-10-02T17:48:52.253Z,6.90
2022-10-02T17:51:52.718Z,8.43
2022-10-02T17:54:40.771Z,11.55
2022-10-02T17:57:24.005Z,13.43
2022-10-02T18:00:10.012Z,9.10
2022-10-02T18:03:04.352Z,11.02
2022-10-02T18:05:50.459Z,8.80
2022-10-02T18:08:35.487Z,12.80
2022-10-02T18:11:08.023Z,8.55
2022-10-02T18:13:43.526Z,13.73
2022-10-02T18:16:22.135Z,9.73
2022-10-02T18:19:18.131Z,12.93
2022-10-02T18:21:58.896Z,14.20
2022-10-02T18:24:46.008Z,14.40
2022-10-02T18:27:30.712Z,10.90
2022-10-02T18:30:15.898Z,10.23
2022-10-02T18:33:02.254Z,10.38
2022-10-02T18:35:52.390Z,12.40
2022-10-02T18:38:40.549Z,9.43
2022-10-02T18:41:12.919Z,9.80
2022-10-02T18:44:02.313Z,12.00
2022-10-02T18:46:46.689Z,17.25
2022-10-02T18:49:46.936Z,12.20
2022-10-02T18:52:29.619Z,11.02
2022-10-02T18:55:05.820Z,12.43
2022-10-02T18:57:51.565Z,15.20
2022-10-02T19:00:22.151Z,16.27
2022-10-02T19:03:13.422Z,15.20
2022-10-02T19:05:55.469Z,20.08
2022-10-02T19:09:08.558Z,21.17
2022-10-02T19:12:05.024Z,13.65
2022-10-02T19:14:33.109Z,15.20
2022-10-02T19:17:05.935Z,13.13
2022-10-02T19:19:33.162Z,11.63
2022-10-02T19:22:14.884Z,14.57
2022-10-02T19:24:43.983Z,12.65
2022-10-02T19:27:18.000Z,12.05
2022-10-02T19:29:54.339Z,10.07
2022-10-02T19:32:25.640Z,13.77
2022-10-02T19:35:01.417Z,18.70
2022-10-02T19:37:28.336Z,11.90
2022-10-02T19:40:00.628Z,13.52
2022-10-02T19:42:31.105Z,13.43
2022-10-02T19:45:05.912Z,14.65
2022-10-02T19:47:50.163Z,21.08
2022-10-02T19:50:23.243Z,15.05
2022-10-02T19:52:57.354Z,13.95
2022-10-02T19:55:27.298Z,16.33
2022-10-02T19:57:59.338Z,10.27
2022-10-02T20:00:26.100Z,17.65
2022-10-02T20:02:58.858Z,13.27
2022-10-02T20:05:29.086Z,15.40
2022-10-02T20:08:07.080Z,14.40
2022-10-02T20:10:50.299Z,13.68
2022-10-02T20:13:23.087Z,12.88
2022-10-02T20:16:32.240Z,12.88
2022-10-02T20:18:59.040Z,13.75
2022-10-02T20:21:38.505Z,12.60
2022-10-02T20:24:13.888Z,16.38
2022-10-02T20:29:18.607Z,15.48
2022-10-02T20:31:58.268Z,12.80
2022-10-02T20:34:33.726Z,11.60
2022-10-02T20:37:08.528Z,18.08
2022-10-02T20:39:49.572Z,13.40
2022-10-02T20:42:29.466Z,19.05
2022-10-02T20:44:55.790Z,13.38
2022-10-02T20:47:28.630Z,14.45
2022-10-02T20:50:33.094Z,14.07
2022-10-02T20:53:17.616Z,18.13
2022-10-02T20:56:21.788Z,16.00
2022-10-02T20:59:33.195Z,15.52
2022-10-02T21:02:18.315Z,14.82
2022-10-02T21:05:15.302Z,16.13
2022-10-02T21:07:56.759Z,16.17
2022-10-02T21:10:29.116Z,15.95
2022-10-02T21:13:01.394Z,18.92
2022-10-02T21:15:52.366Z,15.75
2022-10-02T21:18:41.935Z,17.77
2022-10-02T21:21:24.587Z,14.75
2022-10-02T21:24:18.803Z,26.65
2022-10-02T21:27:03.695Z,14.07
2022-10-02T21:29:41.387Z,22.75
2022-10-02T21:32:41.591Z,16.50
2022-10-02T21:35:16.560Z,16.92
2022-10-02T21:38:09.159Z,13.82
2022-10-02T21:40:45.614Z,14.23
2022-10-02T21:43:47.998Z,14.80
2022-10-02T21:46:42.573Z,18.85
2022-10-02T21:49:21.075Z,14.43
2022-10-02T21:52:08.740Z,15.63
2022-10-02T21:55:13.246Z,12.65
2022-10-02T21:58:05.183Z,16.13
2022-10-02T22:00:36.614Z,19.63
2022-10-02T22:03:31.111Z,16.02
2022-10-02T22:06:29.995Z,13.02
2022-10-02T22:08:59.357Z,13.30
2022-10-02T22:11:56.231Z,15.32
2022-10-02T22:14:40.867Z,26.15
2022-10-02T22:17:44.788Z,13.75
2022-10-02T22:20:55.772Z,18.73
2022-10-02T22:23:25.299Z,21.30
2022-10-02T22:26:28.985Z,18.63
2022-10-02T22:29:19.264Z,42.60
2022-10-02T22:32:20.197Z,35.92
2022-10-02T22:35:03.813Z,35.10
2022-10-02T22:38:09.593Z,20.30
2022-10-02T22:40:52.305Z,21.98
2022-10-02T22:43:45.785Z,21.65
2022-10-02T22:46:44.010Z,24.98
2022-10-02T22:49:39.918Z,30.48
2022-10-02T22:52:16.016Z,24.52
2022-10-02T22:55:06.481Z,17.40
2022-10-02T22:57:32.933Z,19.38
2022-10-02T23:00:05.944Z,16.50
2022-10-02T23:02:49.200Z,12.13
2022-10-02T23:05:26.025Z,20.83
2022-10-02T23:08:02.748Z,16.80
2022-10-02T23:10:43.515Z,19.33
2022-10-02T23:13:16.404Z,15.95
2022-10-02T23:15:56.844Z,23.85
2022-10-02T23:18:36.502Z,12.80
2022-10-02T23:21:08.453Z,19.58
2022-10-02T23:23:50.793Z,12.23
2022-10-02T23:26:33.279Z,12.98
2022-10-02T23:29:26.268Z,15.02
2022-10-02T23:32:31.485Z,15.07
2022-10-02T23:35:06.740Z,17.92
2022-10-02T23:37:45.550Z,18.35
2022-10-02T23:40:47.851Z,17.42
2022-10-02T23:43:31.323Z,13.38
2022-10-02T23:46:10.359Z,17.55
2022-10-02T23:48:38.670Z,13.80
2022-10-02T23:51:24.028Z,13.93
2022-10-02T23:54:18.552Z,19.77
2022-10-02T23:57:17.516Z,22.02
